createdAt,value
2019-03-29T00:00:34.305Z,95.98
2019-03-29T00:01:34.338Z,96.17
2019-03-29T00:02:34.369Z,95.89
2019-03-29T00:03:35.025Z,95.89
2019-03-29T00:04:34.432Z,95.70
2019-03-29T00:05:34.471Z,95.89
2019-03-29T00:06:34.497Z,96.08
2019-03-29T00:07:39.750Z,96.36
2019-03-29T00:08:35.377Z,96.17
2019-03-29T00:09:34.595Z,96.36
2019-03-29T00:10:34.626Z,95.89
2019-03-29T00:11:34.663Z,96.36
2019-03-29T00:12:34.685Z,96.36
2019-03-29T00:13:34.715Z,96.56
2019-03-29T00:14:34.755Z,96.56
2019-03-29T00:15:34.797Z,96.27
2019-03-29T00:16:34.816Z,96.08
2019-03-29T00:17:34.842Z,95.98
2019-03-29T00:18:35.954Z,96.08
2019-03-29T00:19:34.907Z,96.36
2019-03-29T00:20:34.935Z,96.08
2019-03-29T00:21:34.969Z,96.56
2019-03-29T00:22:35.000Z,96.17
2019-03-29T00:23:35.036Z,96.46
2019-03-29T00:24:35.061Z,96.36
2019-03-29T00:25:35.094Z,96.27
2019-03-29T00:26:35.127Z,96.36
2019-03-29T00:27:35.161Z,96.36
2019-03-29T00:28:35.193Z,96.46
2019-03-29T00:29:35.222Z,96.36
2019-03-29T00:30:35.251Z,96.75
2019-03-29T00:31:35.283Z,96.75
2019-03-29T00:32:35.314Z,96.36
2019-03-29T00:33:35.345Z,96.75
2019-03-29T00:34:35.378Z,96.94
2019-03-29T00:35:35.411Z,96.75
2019-03-29T00:36:35.441Z,96.75
2019-03-29T00:37:35.477Z,96.94
2019-03-29T00:38:35.564Z,96.75
2019-03-29T00:39:35.534Z,96.84
2019-03-29T00:40:35.567Z,97.03
2019-03-29T00:41:35.597Z,96.75
2019-03-29T00:42:35.628Z,97.22
2019-03-29T00:43:35.660Z,96.94
2019-03-29T00:44:35.691Z,97.51
2019-03-29T00:45:35.724Z,97.22
2019-03-29T00:46:35.754Z,96.84
2019-03-29T00:47:35.787Z,97.03
2019-03-29T00:48:36.120Z,97.89
2019-03-29T00:49:35.853Z,97.70
2019-03-29T00:50:35.880Z,97.70
2019-03-29T00:51:35.926Z,97.70
2019-03-29T00:52:35.943Z,97.41
2019-03-29T00:53:36.177Z,97.61
2019-03-29T00:54:36.006Z,97.89
2019-03-29T00:55:36.037Z,97.41
2019-03-29T00:56:36.075Z,97.51
2019-03-29T00:57:36.099Z,97.41
2019-03-29T00:58:36.133Z,97.03
2019-03-29T00:59:36.162Z,97.61
2019-03-29T01:00:36.196Z,97.61
2019-03-29T01:01:36.230Z,97.70
2019-03-29T01:02:36.257Z,96.94
2019-03-29T01:03:37.026Z,97.03
2019-03-29T01:04:36.326Z,96.84
2019-03-29T01:05:36.357Z,96.94
2019-03-29T01:06:36.389Z,96.94
2019-03-29T01:07:36.418Z,97.80
2019-03-29T01:08:37.327Z,97.22
2019-03-29T01:09:36.477Z,97.22
2019-03-29T01:10:36.513Z,97.70
2019-03-29T01:11:36.541Z,97.51
2019-03-29T01:12:43.744Z,97.32
2019-03-29T01:14:40.603Z,97.99
2019-03-29T01:15:40.628Z,96.94
2019-03-29T01:17:45.743Z,97.41
2019-03-29T01:18:44.693Z,97.80
2019-03-29T01:20:48.758Z,97.61
2019-03-29T01:21:48.755Z,97.51
2019-03-29T01:23:41.734Z,97.61
2019-03-29T01:24:42.133Z,97.61
2019-03-29T01:26:45.794Z,97.80
2019-03-29T01:27:46.106Z,97.89
2019-03-29T01:29:49.847Z,97.89
2019-03-29T01:30:49.872Z,97.80
2019-03-29T01:32:53.914Z,97.70
2019-03-29T01:33:53.935Z,97.70
2019-03-29T01:34:53.966Z,97.51
2019-03-29T01:35:53.997Z,97.70
2019-03-29T01:36:54.117Z,97.51
2019-03-29T01:37:54.061Z,97.70
2019-03-29T01:38:54.093Z,97.70
2019-03-29T01:39:54.125Z,97.51
2019-03-29T01:40:54.153Z,97.80
2019-03-29T01:41:54.185Z,97.89
2019-03-29T01:42:54.219Z,97.80
2019-03-29T01:43:54.253Z,97.70
2019-03-29T01:44:54.279Z,97.89
2019-03-29T01:45:54.317Z,98.08
2019-03-29T01:46:54.341Z,97.80
2019-03-29T01:47:54.373Z,97.70
2019-03-29T01:48:54.406Z,97.89
2019-03-29T01:49:54.437Z,98.08
2019-03-29T01:50:54.468Z,97.99
2019-03-29T01:51:54.515Z,98.08
2019-03-29T01:52:54.595Z,97.70
2019-03-29T01:53:54.560Z,97.80
2019-03-29T01:54:54.594Z,97.80
2019-03-29T01:55:54.624Z,97.70
2019-03-29T01:56:54.656Z,98.36
2019-03-29T01:57:54.686Z,98.08
2019-03-29T01:58:54.718Z,98.08
2019-03-29T01:59:54.750Z,98.46
2019-03-29T02:00:54.787Z,98.36
2019-03-29T02:01:55.072Z,97.99
2019-03-29T02:02:54.846Z,98.36
2019-03-29T02:03:54.875Z,98.36
2019-03-29T02:04:54.913Z,98.94
2019-03-29T02:05:54.936Z,98.18
2019-03-29T02:06:54.969Z,97.99
2019-03-29T02:07:55.001Z,98.27
2019-03-29T02:08:55.032Z,99.04
2019-03-29T02:09:55.068Z,99.04
2019-03-29T02:10:55.147Z,99.13
2019-03-29T02:11:55.134Z,98.65
2019-03-29T02:12:55.155Z,98.75
2019-03-29T02:13:55.189Z,99.04
2019-03-29T02:14:55.218Z,98.94
2019-03-29T02:15:55.255Z,98.94
2019-03-29T02:16:56.027Z,99.13
2019-03-29T02:17:55.315Z,99.13
2019-03-29T02:18:55.347Z,99.13
2019-03-29T02:19:55.378Z,98.94
2019-03-29T02:20:55.410Z,98.85
2019-03-29T02:21:55.440Z,98.85
2019-03-29T02:22:55.471Z,98.46
2019-03-29T02:23:56.944Z,99.41
2019-03-29T02:24:55.533Z,98.85
2019-03-29T02:25:55.565Z,98.75
2019-03-29T02:26:55.598Z,99.04
2019-03-29T02:27:55.628Z,98.89
2019-03-29T02:28:55.683Z,98.85
2019-03-29T02:29:55.689Z,99.04
2019-03-29T02:30:55.722Z,98.65
2019-03-29T02:31:56.972Z,99.04
2019-03-29T02:32:55.786Z,99.04
2019-03-29T02:33:55.823Z,98.75
2019-03-29T02:34:55.846Z,98.94
2019-03-29T02:35:55.879Z,98.94
2019-03-29T02:36:55.919Z,98.85
2019-03-29T02:37:56.648Z,98.75
2019-03-29T02:38:57.899Z,98.75
2019-03-29T02:39:56.026Z,98.94
2019-03-29T02:40:56.039Z,98.85
2019-03-29T02:41:56.070Z,98.75
2019-03-29T02:42:56.102Z,98.65
2019-03-29T02:43:56.131Z,98.65
2019-03-29T02:44:56.161Z,98.85
2019-03-29T02:45:57.590Z,98.94
2019-03-29T02:46:56.226Z,98.65
2019-03-29T02:47:56.257Z,98.65
2019-03-29T02:48:56.286Z,98.94
2019-03-29T02:49:56.318Z,98.08
2019-03-29T02:50:56.351Z,98.27
2019-03-29T02:51:56.387Z,98.08
2019-03-29T02:52:56.413Z,98.27
2019-03-29T02:53:56.443Z,98.08
2019-03-29T02:54:56.519Z,98.08
2019-03-29T02:55:56.507Z,98.46
2019-03-29T02:56:56.600Z,98.27
2019-03-29T02:57:56.570Z,98.36
2019-03-29T02:58:56.600Z,98.36
2019-03-29T02:59:56.634Z,98.27
2019-03-29T03:00:56.661Z,98.46
2019-03-29T03:01:56.702Z,97.89
2019-03-29T03:02:56.726Z,97.99
2019-03-29T03:03:56.783Z,98.08
2019-03-29T03:04:56.791Z,97.80
2019-03-29T03:05:56.890Z,97.80
2019-03-29T03:06:56.850Z,98.18
2019-03-29T03:07:56.882Z,98.18
2019-03-29T03:09:12.396Z,98.08
2019-03-29T03:09:56.946Z,98.27
2019-03-29T03:10:56.975Z,98.27
2019-03-29T03:11:57.130Z,98.18
2019-03-29T03:12:57.039Z,97.99
2019-03-29T03:13:57.086Z,97.70
2019-03-29T03:14:57.106Z,97.89
2019-03-29T03:15:57.134Z,97.89
2019-03-29T03:16:57.164Z,97.70
2019-03-29T03:17:57.195Z,97.89
2019-03-29T03:18:57.229Z,97.89
2019-03-29T03:19:57.261Z,98.27
2019-03-29T03:20:57.300Z,98.08
2019-03-29T03:21:57.327Z,97.70
2019-03-29T03:22:57.356Z,97.80
2019-03-29T03:23:57.387Z,97.70
2019-03-29T03:24:57.415Z,97.80
2019-03-29T03:25:57.446Z,97.80
2019-03-29T03:26:57.484Z,97.89
2019-03-29T03:27:57.511Z,97.80
2019-03-29T03:28:57.541Z,97.89
2019-03-29T03:29:57.577Z,97.80
2019-03-29T03:30:57.605Z,97.80
2019-03-29T03:31:57.636Z,98.18
2019-03-29T03:32:57.679Z,97.80
2019-03-29T03:33:57.716Z,98.18
2019-03-29T03:34:57.897Z,97.70
2019-03-29T03:35:57.762Z,97.80
2019-03-29T03:36:57.794Z,97.80
2019-03-29T03:37:57.825Z,97.70
2019-03-29T03:38:57.854Z,97.61
2019-03-29T03:39:57.887Z,97.61
2019-03-29T03:40:57.923Z,97.51
2019-03-29T03:41:57.950Z,97.51
2019-03-29T03:42:57.985Z,97.61
2019-03-29T03:43:58.014Z,97.51
2019-03-29T03:44:58.045Z,97.41
2019-03-29T03:45:58.075Z,97.70
2019-03-29T03:46:58.109Z,97.51
2019-03-29T03:47:58.146Z,97.22
2019-03-29T03:48:58.172Z,97.41
2019-03-29T03:50:00.939Z,97.89
2019-03-29T03:50:58.248Z,97.80
2019-03-29T03:51:58.265Z,97.80
2019-03-29T03:52:58.295Z,97.70
2019-03-29T03:53:58.327Z,97.70
2019-03-29T03:54:58.358Z,97.41
2019-03-29T03:55:58.389Z,97.89
2019-03-29T03:56:58.419Z,98.18
2019-03-29T03:57:58.459Z,97.80
2019-03-29T03:58:58.492Z,97.80
2019-03-29T03:59:58.515Z,97.70
2019-03-29T04:00:58.550Z,97.70
2019-03-29T04:01:58.581Z,97.70
2019-03-29T04:02:58.614Z,97.61
2019-03-29T04:03:58.641Z,97.70
2019-03-29T04:04:58.730Z,97.41
2019-03-29T04:05:58.714Z,97.61
2019-03-29T04:06:58.734Z,97.80
2019-03-29T04:07:58.778Z,98.18
2019-03-29T04:08:58.797Z,97.41
2019-03-29T04:09:58.828Z,97.70
2019-03-29T04:10:58.861Z,97.80
2019-03-29T04:11:58.892Z,97.80
2019-03-29T04:12:58.921Z,98.18
2019-03-29T04:13:58.963Z,98.36
2019-03-29T04:14:58.986Z,97.89
2019-03-29T04:15:59.021Z,98.36
2019-03-29T04:16:59.049Z,98.46
2019-03-29T04:17:59.081Z,98.46
2019-03-29T04:18:59.116Z,98.27
2019-03-29T04:19:59.148Z,98.27
2019-03-29T04:20:59.182Z,97.99
2019-03-29T04:21:59.206Z,97.99
2019-03-29T04:22:59.238Z,98.08
2019-03-29T04:23:59.278Z,98.27
2019-03-29T04:24:59.298Z,98.85
2019-03-29T04:25:59.362Z,98.65
2019-03-29T04:26:59.401Z,98.65
2019-03-29T04:27:59.426Z,98.85
2019-03-29T04:29:04.743Z,98.03
2019-03-29T04:29:59.492Z,98.51
2019-03-29T04:30:59.518Z,98.65
2019-03-29T04:31:59.520Z,98.89
2019-03-29T04:32:59.562Z,98.94
2019-03-29T04:33:59.581Z,98.65
2019-03-29T04:34:59.612Z,99.04
2019-03-29T04:35:59.644Z,98.46
2019-03-29T04:36:59.674Z,98.08
2019-03-29T04:37:59.708Z,97.99
2019-03-29T04:39:35.401Z,97.99
2019-03-29T04:40:08.087Z,98.46
2019-03-29T04:42:42.561Z,98.70
2019-03-29T04:43:42.564Z,98.94
2019-03-29T04:45:46.764Z,98.94
2019-03-29T04:46:46.781Z,98.65
2019-03-29T04:48:50.945Z,98.75
2019-03-29T04:49:50.971Z,98.85
2019-03-29T04:51:55.004Z,98.94
2019-03-29T04:52:55.030Z,97.99
2019-03-29T04:54:59.165Z,98.08
2019-03-29T04:55:59.201Z,98.56
2019-03-29T04:58:03.253Z,98.36
2019-03-29T04:59:03.281Z,97.99
2019-03-29T05:01:07.324Z,98.08
2019-03-29T05:02:07.340Z,97.70
2019-03-29T05:04:00.284Z,98.27
2019-03-29T05:05:00.434Z,98.08
2019-03-29T05:07:04.342Z,98.18
2019-03-29T05:08:04.366Z,97.99
2019-03-29T05:10:20.391Z,98.27
2019-03-29T05:11:08.419Z,97.80
2019-03-29T05:13:12.446Z,97.22
2019-03-29T05:14:12.473Z,97.70
2019-03-29T05:16:16.512Z,98.18
2019-03-29T05:17:16.526Z,97.80
2019-03-29T05:19:20.567Z,97.89
2019-03-29T05:20:20.592Z,97.89
2019-03-29T05:22:24.644Z,97.80
2019-03-29T05:23:24.646Z,97.51
2019-03-29T05:25:28.680Z,97.70
2019-03-29T05:26:28.702Z,97.61
2019-03-29T05:27:28.733Z,97.51
2019-03-29T05:28:28.764Z,97.61
2019-03-29T05:29:28.796Z,97.61
2019-03-29T05:30:28.826Z,97.41
2019-03-29T05:31:28.865Z,97.51
2019-03-29T05:32:28.899Z,97.89
2019-03-29T05:33:28.922Z,96.84
2019-03-29T05:34:28.953Z,97.80
2019-03-29T05:35:28.985Z,97.70
2019-03-29T05:36:29.014Z,97.61
2019-03-29T05:37:29.048Z,97.70
2019-03-29T05:38:29.079Z,97.03
2019-03-29T05:39:29.108Z,96.75
2019-03-29T05:40:34.727Z,97.13
2019-03-29T05:41:29.171Z,97.41
2019-03-29T05:42:29.203Z,97.32
2019-03-29T05:43:29.252Z,97.41
2019-03-29T05:44:29.267Z,96.84
2019-03-29T05:45:29.298Z,97.03
2019-03-29T05:46:29.328Z,96.75
2019-03-29T05:47:29.361Z,96.84
2019-03-29T05:48:29.391Z,96.75
2019-03-29T05:49:29.423Z,96.75
2019-03-29T05:50:29.455Z,96.75
2019-03-29T05:51:29.485Z,96.94
2019-03-29T05:52:29.523Z,96.65
2019-03-29T05:53:29.551Z,96.27
2019-03-29T05:54:29.578Z,96.56
2019-03-29T05:55:32.817Z,96.65
2019-03-29T05:56:29.645Z,96.56
2019-03-29T05:57:29.679Z,96.65
2019-03-29T05:58:29.708Z,96.56
2019-03-29T05:59:29.748Z,96.36
2019-03-29T06:00:29.782Z,96.56
2019-03-29T06:01:29.800Z,96.75
2019-03-29T06:02:29.852Z,96.27
2019-03-29T06:03:29.872Z,96.56
2019-03-29T06:04:29.895Z,96.17
2019-03-29T06:05:29.926Z,96.17
2019-03-29T06:06:29.968Z,96.41
2019-03-29T06:07:29.989Z,95.98
2019-03-29T06:08:30.020Z,95.89
2019-03-29T06:09:30.051Z,96.13
2019-03-29T06:10:30.083Z,95.94
2019-03-29T06:11:30.116Z,95.79
2019-03-29T06:12:30.147Z,96.17
2019-03-29T06:13:30.179Z,95.89
2019-03-29T06:14:30.207Z,96.27
2019-03-29T06:15:30.240Z,95.89
2019-03-29T06:16:38.874Z,96.32
2019-03-29T06:17:30.304Z,96.22
2019-03-29T06:18:30.487Z,95.98
2019-03-29T06:19:30.370Z,96.13
2019-03-29T06:20:30.401Z,95.94
2019-03-29T06:21:30.429Z,95.65
2019-03-29T06:22:30.462Z,96.13
2019-03-29T06:23:30.504Z,95.65
2019-03-29T06:24:30.526Z,95.75
2019-03-29T06:25:30.559Z,95.65
2019-03-29T06:26:30.588Z,95.56
2019-03-29T06:27:30.618Z,95.65
2019-03-29T06:28:30.654Z,95.56
2019-03-29T06:29:30.682Z,95.27
2019-03-29T06:30:30.712Z,95.94
2019-03-29T06:31:30.746Z,95.70
2019-03-29T06:32:30.777Z,95.17
2019-03-29T06:33:30.870Z,95.84
2019-03-29T06:34:30.839Z,96.03
2019-03-29T06:35:30.873Z,95.46
2019-03-29T06:36:30.904Z,95.17
2019-03-29T06:37:30.935Z,95.46
2019-03-29T06:38:30.964Z,95.37
2019-03-29T06:39:30.998Z,95.56
2019-03-29T06:40:31.036Z,95.65
2019-03-29T06:41:31.063Z,95.46
2019-03-29T06:42:31.092Z,95.46
2019-03-29T06:43:31.125Z,94.89
2019-03-29T06:44:31.156Z,95.27
2019-03-29T06:45:31.187Z,94.89
2019-03-29T06:46:31.217Z,94.89
2019-03-29T06:47:31.248Z,94.89
2019-03-29T06:48:31.281Z,95.17
2019-03-29T06:49:31.314Z,95.17
2019-03-29T06:50:31.420Z,94.98
2019-03-29T06:51:31.375Z,94.98
2019-03-29T06:52:31.408Z,95.17
2019-03-29T06:53:31.444Z,94.89
2019-03-29T06:54:31.472Z,95.17
2019-03-29T06:55:31.507Z,95.56
2019-03-29T06:56:31.533Z,95.37
2019-03-29T06:57:31.567Z,95.56
2019-03-29T06:58:31.597Z,94.98
2019-03-29T06:59:31.628Z,94.98
2019-03-29T07:00:31.664Z,94.51
2019-03-29T07:01:31.696Z,94.79
2019-03-29T07:02:31.726Z,94.60
2019-03-29T07:03:31.756Z,94.51
2019-03-29T07:04:31.791Z,94.70
2019-03-29T07:05:31.819Z,94.03
2019-03-29T07:07:07.665Z,94.60
2019-03-29T07:24:06.806Z,93.84
2019-03-29T07:25:06.827Z,94.22
2019-03-29T07:27:10.859Z,94.03
2019-03-29T07:28:10.888Z,93.51
2019-03-29T07:30:03.863Z,93.79
2019-03-29T07:31:03.874Z,93.70
2019-03-29T07:39:45.036Z,93.70
2019-03-29T07:40:38.098Z,93.98
2019-03-29T07:42:42.127Z,93.60
2019-03-29T07:45:10.061Z,94.27
2019-03-29T07:46:06.198Z,93.70
2019-03-29T07:48:10.243Z,93.79
2019-03-29T07:50:34.275Z,93.79
2019-03-29T07:51:34.303Z,93.79
2019-03-29T07:53:38.338Z,93.02
2019-03-29T07:54:38.360Z,93.02
2019-03-29T07:56:42.391Z,92.55
2019-03-29T07:57:42.415Z,92.36
2019-03-29T07:59:46.446Z,92.74
2019-03-29T08:00:46.473Z,91.88
2019-03-29T08:02:50.534Z,91.21
2019-03-29T08:03:51.393Z,91.88
2019-03-29T08:05:54.563Z,91.50
2019-03-29T08:06:54.589Z,91.31
2019-03-29T08:08:58.617Z,91.74
2019-03-29T08:09:58.645Z,90.97
2019-03-29T08:12:02.675Z,90.59
2019-03-29T08:13:02.701Z,90.69
2019-03-29T08:15:09.524Z,90.21
2019-03-29T08:16:06.844Z,90.40
2019-03-29T08:18:10.807Z,90.21
2019-03-29T08:19:10.823Z,90.69
2019-03-29T08:21:14.892Z,90.02
2019-03-29T08:22:14.887Z,90.21
2019-03-29T08:24:18.923Z,89.45
2019-03-29T08:25:18.947Z,89.25
2019-03-29T08:27:23.010Z,89.35
2019-03-29T08:28:23.012Z,90.11
2019-03-29T08:30:15.967Z,90.31
2019-03-29T08:31:16.000Z,90.21
2019-03-29T08:33:20.024Z,89.16
2019-03-29T08:34:20.052Z,89.64
2019-03-29T08:36:24.106Z,89.35
2019-03-29T08:37:24.127Z,89.45
2019-03-29T08:39:28.657Z,89.73
2019-03-29T08:40:28.182Z,90.40
2019-03-29T08:42:32.209Z,90.31
2019-03-29T08:43:32.236Z,89.45
2019-03-29T08:45:42.291Z,89.64
2019-03-29T08:46:36.299Z,89.54
2019-03-29T08:48:40.332Z,89.35
2019-03-29T08:49:40.360Z,89.35
2019-03-29T08:51:44.390Z,89.92
2019-03-29T08:52:44.416Z,90.31
2019-03-29T08:54:51.095Z,89.92
2019-03-29T08:55:48.479Z,89.35
2019-03-29T08:59:35.233Z,89.54
2019-03-29T09:00:35.261Z,89.64
2019-03-29T09:02:39.304Z,89.35
2019-03-29T09:03:39.317Z,89.45
2019-03-29T09:05:43.353Z,89.16
2019-03-29T09:06:53.316Z,89.73
2019-03-29T09:08:47.419Z,88.97
2019-03-29T09:09:47.437Z,89.45
2019-03-29T09:11:51.461Z,89.35
2019-03-29T09:12:51.488Z,89.16
2019-03-29T09:14:55.521Z,89.45
2019-03-29T09:15:55.549Z,89.64
2019-03-29T09:18:00.067Z,89.64
2019-03-29T09:18:59.611Z,89.45
2019-03-29T09:21:03.641Z,89.25
2019-03-29T09:22:03.670Z,89.64
2019-03-29T09:24:21.029Z,89.45
2019-03-29T09:25:07.722Z,89.73
2019-03-29T09:27:11.755Z,88.87
2019-03-29T09:28:11.780Z,88.87
2019-03-29T09:30:05.210Z,89.25
2019-03-29T09:31:04.759Z,89.45
2019-03-29T09:33:13.757Z,89.54
2019-03-29T09:34:08.827Z,89.16
2019-03-29T09:36:12.858Z,89.45
2019-03-29T09:37:12.884Z,89.35
2019-03-29T09:39:16.923Z,89.25
2019-03-29T09:40:16.973Z,89.06
2019-03-29T09:42:28.873Z,89.35
2019-03-29T09:43:21.002Z,89.54
2019-03-29T09:45:25.032Z,89.54
2019-03-29T09:46:25.110Z,88.97
2019-03-29T09:48:29.113Z,89.06
2019-03-29T09:49:29.122Z,88.68
2019-03-29T09:51:35.901Z,88.20
2019-03-29T09:52:33.203Z,87.54
2019-03-29T09:54:37.214Z,88.20
2019-03-29T09:55:37.242Z,88.20
2019-03-29T09:57:41.284Z,88.40
2019-03-29T09:58:44.779Z,88.40
2019-03-29T10:00:34.260Z,87.35
2019-03-29T10:01:34.379Z,87.35
2019-03-29T10:03:38.437Z,87.25
2019-03-29T10:04:38.342Z,87.25
2019-03-29T10:06:42.372Z,87.06
2019-03-29T10:07:42.398Z,87.44
2019-03-29T10:09:46.428Z,86.87
2019-03-29T10:10:46.455Z,87.15
2019-03-29T10:12:50.494Z,86.34
2019-03-29T10:13:50.521Z,85.67
2019-03-29T10:15:54.558Z,85.38
2019-03-29T10:16:54.577Z,85.58
2019-03-29T10:18:58.635Z,85.19
2019-03-29T10:19:58.639Z,85.48
2019-03-29T10:22:02.692Z,84.81
2019-03-29T10:23:02.719Z,83.76
2019-03-29T10:25:18.425Z,83.67
2019-03-29T10:26:06.783Z,85.00
2019-03-29T10:28:10.854Z,83.38
2019-03-29T10:29:10.884Z,83.00
2019-03-29T10:31:14.922Z,81.85
2019-03-29T10:32:14.948Z,81.37
2019-03-29T10:34:19.006Z,81.66
2019-03-29T10:35:19.035Z,81.32
2019-03-29T10:39:06.522Z,80.74
2019-03-29T10:40:06.528Z,80.84
2019-03-29T10:42:10.557Z,79.88
2019-03-29T10:43:10.583Z,80.27
2019-03-29T10:45:14.618Z,79.73
2019-03-29T10:46:14.643Z,78.87
2019-03-29T10:48:18.670Z,76.67
2019-03-29T10:49:18.700Z,76.29
2019-03-29T10:51:22.730Z,76.67
2019-03-29T10:52:22.758Z,74.85
2019-03-29T10:54:26.811Z,76.10
2019-03-29T10:55:26.816Z,75.34
2019-03-29T10:57:30.858Z,72.94
2019-03-29T10:58:30.886Z,70.84
2019-03-29T11:00:23.840Z,72.08
2019-03-29T11:01:24.817Z,71.32
2019-03-29T11:03:28.819Z,71.42
2019-03-29T11:04:31.485Z,71.32
2019-03-29T11:06:31.968Z,72.56
2019-03-29T11:07:31.998Z,71.80
2019-03-29T11:09:37.196Z,71.51
2019-03-29T11:10:36.059Z,71.51
2019-03-29T11:12:40.191Z,72.85
2019-03-29T11:13:41.223Z,71.13
2019-03-29T11:15:44.154Z,71.61
2019-03-29T11:16:44.182Z,69.89
2019-03-29T11:18:48.210Z,69.56
2019-03-29T11:19:48.236Z,70.33
2019-03-29T11:21:52.272Z,71.38
2019-03-29T11:22:52.297Z,71.38
2019-03-29T11:24:56.354Z,72.24
2019-03-29T11:25:56.363Z,72.72
2019-03-29T11:28:00.399Z,71.38
2019-03-29T11:29:00.424Z,71.86
2019-03-29T11:31:04.454Z,72.53
2019-03-29T11:32:04.485Z,72.53
2019-03-29T11:34:08.517Z,73.67
2019-03-29T11:35:08.541Z,74.05
2019-03-29T11:37:12.572Z,75.01
2019-03-29T11:38:12.601Z,74.53
2019-03-29T11:40:05.589Z,73.96
2019-03-29T11:41:05.592Z,73.92
2019-03-29T11:43:09.631Z,75.20
2019-03-29T11:44:09.658Z,75.68
2019-03-29T11:46:13.688Z,74.63
2019-03-29T11:47:13.716Z,74.24
2019-03-29T11:49:17.790Z,74.53
2019-03-29T11:50:17.774Z,74.15
2019-03-29T11:52:21.813Z,73.86
2019-03-29T11:53:21.841Z,73.58
2019-03-29T11:55:25.893Z,74.44
2019-03-29T11:56:25.900Z,74.63
2019-03-29T11:58:29.930Z,74.05
2019-03-29T11:59:29.965Z,73.67
2019-03-29T12:01:34.012Z,73.67
2019-03-29T12:02:34.017Z,74.24
2019-03-29T12:04:38.075Z,73.96
2019-03-29T12:05:38.103Z,74.63
2019-03-29T12:07:42.117Z,73.58
2019-03-29T12:08:42.141Z,73.77
2019-03-29T12:10:35.109Z,73.00
2019-03-29T12:11:35.121Z,73.29
2019-03-29T12:13:41.311Z,73.77
2019-03-29T12:14:39.185Z,74.44
2019-03-29T12:16:32.354Z,74.53
2019-03-29T12:17:32.383Z,74.34
2019-03-29T12:19:36.415Z,74.05
2019-03-29T12:20:36.443Z,73.67
2019-03-29T12:24:23.868Z,74.05
2019-03-29T12:25:23.896Z,73.96
2019-03-29T12:27:27.927Z,73.86
2019-03-29T12:28:27.958Z,73.96
2019-03-29T12:30:31.249Z,74.53
2019-03-29T12:31:20.936Z,74.53
2019-03-29T12:33:14.109Z,73.86
2019-03-29T12:34:14.128Z,73.86
2019-03-29T12:36:18.155Z,73.67
2019-03-29T12:37:18.179Z,73.86
2019-03-29T12:39:22.212Z,73.58
2019-03-29T12:40:22.241Z,73.58
2019-03-29T12:42:26.270Z,73.39
2019-03-29T12:43:26.299Z,73.77
2019-03-29T12:45:30.352Z,73.77
2019-03-29T12:46:32.326Z,73.29
2019-03-29T12:48:34.389Z,73.67
2019-03-29T12:49:34.415Z,73.29
2019-03-29T12:51:38.450Z,74.05
2019-03-29T12:52:38.477Z,73.86
2019-03-29T12:54:42.523Z,73.96
2019-03-29T12:55:42.537Z,73.39
2019-03-29T12:57:46.588Z,73.29
2019-03-29T12:58:46.594Z,72.72
2019-03-29T13:00:39.550Z,72.24
2019-03-29T13:01:40.435Z,71.67
2019-03-29T13:03:43.615Z,71.95
2019-03-29T13:04:46.875Z,72.05
2019-03-29T13:06:47.784Z,72.05
2019-03-29T13:07:47.802Z,71.47
2019-03-29T13:09:51.854Z,70.71
2019-03-29T13:10:51.859Z,71.09
2019-03-29T13:12:55.906Z,71.38
2019-03-29T13:14:09.095Z,72.05
2019-03-29T13:15:59.962Z,71.95
2019-03-29T13:17:02.669Z,72.24
2019-03-29T13:19:04.037Z,71.67
2019-03-29T13:20:04.054Z,71.47
2019-03-29T13:21:04.090Z,71.09
2019-03-29T13:22:04.123Z,70.42
2019-03-29T13:23:04.155Z,69.95
2019-03-29T13:24:04.189Z,69.76
2019-03-29T13:25:07.146Z,69.66
2019-03-29T13:26:04.253Z,69.95
2019-03-29T13:27:04.286Z,69.76
2019-03-29T13:28:04.319Z,70.23
2019-03-29T13:29:04.352Z,70.81
2019-03-29T13:30:04.385Z,70.81
2019-03-29T13:31:04.417Z,72.05
2019-03-29T13:32:04.451Z,71.09
2019-03-29T13:33:04.485Z,71.28
2019-03-29T13:34:04.516Z,71.67
2019-03-29T13:35:04.551Z,71.38
2019-03-29T13:36:04.581Z,71.67
2019-03-29T13:37:04.618Z,70.90
2019-03-29T13:38:04.649Z,70.33
2019-03-29T13:39:04.680Z,70.04
2019-03-29T13:40:04.714Z,70.04
2019-03-29T13:41:07.018Z,70.14
2019-03-29T13:42:04.781Z,69.95
2019-03-29T13:43:04.813Z,70.23
2019-03-29T13:44:04.845Z,70.33
2019-03-29T13:45:04.889Z,69.95
2019-03-29T13:46:04.912Z,69.95
2019-03-29T13:47:04.946Z,70.33
2019-03-29T13:48:04.979Z,70.33
2019-03-29T13:49:05.097Z,70.52
2019-03-29T13:50:05.043Z,70.52
2019-03-29T13:51:05.076Z,70.71
2019-03-29T13:52:05.110Z,70.71
2019-03-29T13:53:05.149Z,70.23
2019-03-29T13:54:05.175Z,70.33
2019-03-29T13:55:05.208Z,70.14
2019-03-29T13:56:05.241Z,70.71
2019-03-29T13:57:05.277Z,70.52
2019-03-29T13:58:05.307Z,70.90
2019-03-29T13:59:05.339Z,71.00
2019-03-29T14:00:05.377Z,70.71
2019-03-29T14:01:05.407Z,71.76
2019-03-29T14:02:05.440Z,70.81
2019-03-29T14:03:05.471Z,71.57
2019-03-29T14:04:05.505Z,71.28
2019-03-29T14:05:05.538Z,71.76
2019-03-29T14:06:05.573Z,71.38
2019-03-29T14:07:05.617Z,71.67
2019-03-29T14:08:05.637Z,71.76
2019-03-29T14:09:05.671Z,71.47
2019-03-29T14:10:05.701Z,70.71
2019-03-29T14:11:05.738Z,70.23
2019-03-29T14:12:05.767Z,70.42
2019-03-29T14:13:05.802Z,71.09
2019-03-29T14:14:05.832Z,70.71
2019-03-29T14:15:05.865Z,71.09
2019-03-29T14:16:05.899Z,71.00
2019-03-29T14:17:05.932Z,71.95
2019-03-29T14:18:05.965Z,71.57
2019-03-29T14:19:05.996Z,71.19
2019-03-29T14:20:06.032Z,71.00
2019-03-29T14:21:06.074Z,70.71
2019-03-29T14:22:06.102Z,71.09
2019-03-29T14:23:06.127Z,70.23
2019-03-29T14:24:06.237Z,70.04
2019-03-29T14:25:06.195Z,69.95
2019-03-29T14:26:06.228Z,69.76
2019-03-29T14:27:06.259Z,70.04
2019-03-29T14:28:06.293Z,70.23
2019-03-29T14:29:06.325Z,71.00
2019-03-29T14:30:06.358Z,71.09
2019-03-29T14:31:06.392Z,70.71
2019-03-29T14:32:06.425Z,70.90
2019-03-29T14:33:06.460Z,70.81
2019-03-29T14:34:06.494Z,70.52
2019-03-29T14:35:06.527Z,70.90
2019-03-29T14:36:06.571Z,70.61
2019-03-29T14:37:06.590Z,71.09
2019-03-29T14:38:06.621Z,70.61
2019-03-29T14:39:06.661Z,70.14
2019-03-29T14:40:06.689Z,70.14
2019-03-29T14:41:06.720Z,70.42
2019-03-29T14:42:06.758Z,70.71
2019-03-29T14:43:06.785Z,71.09
2019-03-29T14:44:06.819Z,71.00
2019-03-29T14:45:06.851Z,70.71
2019-03-29T14:46:06.887Z,70.81
2019-03-29T14:47:06.921Z,70.52
2019-03-29T14:48:07.027Z,70.71
2019-03-29T14:49:06.982Z,69.95
2019-03-29T14:50:07.018Z,70.33
2019-03-29T14:51:07.050Z,69.85
2019-03-29T14:52:07.086Z,69.56
2019-03-29T14:53:07.117Z,70.42
2019-03-29T14:54:07.165Z,71.19
2019-03-29T14:55:07.186Z,70.71
2019-03-29T14:56:07.216Z,70.52
2019-03-29T14:57:07.250Z,70.52
2019-03-29T14:58:07.280Z,71.19
2019-03-29T14:59:07.326Z,71.19
2019-03-29T15:00:07.349Z,71.09
2019-03-29T15:01:07.379Z,71.19
2019-03-29T15:02:07.412Z,70.71
2019-03-29T15:03:07.444Z,70.42
2019-03-29T15:04:07.488Z,71.09
2019-03-29T15:05:07.517Z,71.00
2019-03-29T15:06:07.544Z,71.19
2019-03-29T15:07:07.577Z,71.47
2019-03-29T15:08:07.609Z,71.47
2019-03-29T15:09:07.644Z,71.09
2019-03-29T15:10:07.676Z,71.19
2019-03-29T15:11:21.325Z,70.61
2019-03-29T15:12:07.742Z,71.09
2019-03-29T15:13:07.774Z,71.28
2019-03-29T15:14:07.807Z,70.52
2019-03-29T15:15:07.839Z,70.04
2019-03-29T15:16:07.872Z,69.76
2019-03-29T15:17:07.906Z,70.14
2019-03-29T15:18:07.938Z,69.95
2019-03-29T15:19:07.969Z,69.76
2019-03-29T15:20:08.006Z,69.66
2019-03-29T15:21:10.430Z,69.76
2019-03-29T15:22:08.070Z,69.95
2019-03-29T15:23:08.108Z,69.95
2019-03-29T15:24:08.136Z,69.85
2019-03-29T15:25:08.169Z,70.04
2019-03-29T15:26:08.202Z,69.76
2019-03-29T15:27:08.289Z,70.04
2019-03-29T15:28:08.268Z,69.95
2019-03-29T15:29:08.299Z,69.95
2019-03-29T15:30:08.332Z,70.23
2019-03-29T15:31:08.431Z,69.95
2019-03-29T15:32:08.399Z,69.66
2019-03-29T15:33:08.432Z,69.66
2019-03-29T15:34:08.471Z,69.37
2019-03-29T15:35:08.501Z,69.18
2019-03-29T15:36:08.531Z,69.09
2019-03-29T15:37:10.028Z,69.27
2019-03-29T15:38:08.597Z,68.61
2019-03-29T15:39:08.629Z,68.90
2019-03-29T15:40:08.661Z,69.18
2019-03-29T15:41:08.695Z,69.47
2019-03-29T15:42:08.728Z,70.04
2019-03-29T15:43:08.760Z,70.04
2019-03-29T15:44:08.796Z,70.04